createdAt,value
2022-09-25T04:34:19.388Z,14.17
2022-09-25T04:39:22.336Z,13.00
2022-09-25T04:44:25.065Z,12.73
2022-09-25T04:49:27.763Z,13.27
2022-09-25T04:54:31.288Z,15.37
2022-09-25T04:59:33.964Z,14.43
2022-09-25T05:04:36.679Z,14.33
2022-09-25T05:09:39.360Z,15.83
2022-09-25T05:14:42.680Z,15.93
2022-09-25T05:19:45.518Z,15.53
2022-09-25T05:24:48.228Z,14.50
2022-09-25T05:29:51.005Z,14.70
2022-09-25T05:34:53.679Z,15.70
2022-09-25T05:39:56.379Z,13.30
2022-09-25T05:45:03.483Z,14.43
2022-09-25T05:50:13.766Z,14.57
2022-09-25T05:55:16.996Z,16.70
2022-09-25T06:00:20.182Z,16.17
2022-09-25T06:05:22.925Z,18.83
2022-09-25T06:10:26.840Z,20.07
2022-09-25T06:15:35.877Z,21.53
2022-09-25T06:20:38.589Z,20.07
2022-09-25T06:25:41.329Z,20.90
2022-09-25T06:30:44.135Z,21.83
2022-09-25T06:35:48.199Z,23.73
2022-09-25T06:40:51.143Z,24.50
2022-09-25T06:45:54.045Z,24.33
2022-09-25T06:50:59.528Z,23.53
2022-09-25T06:56:02.937Z,22.47
2022-09-25T07:01:10.539Z,21.93
2022-09-25T07:06:18.805Z,19.93
2022-09-25T07:11:22.971Z,19.90
2022-09-25T07:16:27.690Z,18.07
2022-09-25T07:21:32.435Z,19.10
2022-09-25T07:26:37.845Z,18.73
2022-09-25T07:31:43.933Z,18.03
2022-09-25T07:36:47.541Z,15.97
2022-09-25T07:41:50.466Z,13.47
2022-09-25T07:46:53.158Z,12.27
2022-09-25T07:51:55.864Z,13.37
2022-09-25T07:56:58.795Z,13.57
2022-09-25T08:02:03.071Z,13.87
2022-09-25T08:07:06.405Z,13.23
2022-09-25T08:12:12.978Z,12.83
2022-09-25T08:17:15.683Z,15.17
2022-09-25T08:22:18.348Z,11.97
2022-09-25T08:27:21.044Z,14.13
2022-09-25T08:32:24.021Z,14.07
2022-09-25T08:37:26.717Z,14.07
2022-09-25T08:42:36.181Z,12.83
2022-09-25T08:47:57.694Z,12.23
2022-09-25T08:53:12.552Z,11.90
2022-09-25T08:58:25.481Z,13.57
2022-09-25T09:03:30.541Z,11.77
2022-09-25T09:08:36.546Z,10.80
2022-09-25T09:13:48.480Z,10.70
2022-09-25T09:18:51.515Z,11.50
2022-09-25T09:24:25.471Z,11.00
2022-09-25T09:29:37.294Z,12.07
2022-09-25T09:40:47.246Z,11.17
2022-09-25T09:46:08.554Z,11.07
2022-09-25T09:51:26.594Z,13.43
2022-09-25T09:56:32.422Z,11.53
2022-09-25T10:01:42.129Z,12.63
2022-09-25T10:06:52.296Z,13.80
2022-09-25T10:12:03.590Z,13.30
2022-09-25T10:17:11.523Z,13.37
2022-09-25T10:22:20.747Z,13.00
2022-09-25T10:27:38.348Z,13.87
2022-09-25T10:32:52.309Z,13.83
2022-09-25T10:38:01.785Z,12.30
2022-09-25T10:43:17.744Z,10.93
2022-09-25T10:48:50.877Z,10.93
2022-09-25T10:54:15.335Z,10.40
2022-09-25T10:59:20.731Z,9.27
2022-09-25T11:04:25.129Z,10.30
2022-09-25T11:09:29.350Z,8.90
2022-09-25T11:14:34.333Z,10.83
2022-09-25T11:19:38.477Z,10.63
2022-09-25T11:24:50.771Z,9.33
2022-09-25T11:30:17.463Z,10.30
2022-09-25T11:35:50.172Z,9.27
2022-09-25T11:41:16.106Z,9.10
2022-09-25T11:46:23.386Z,9.50
2022-09-25T11:51:47.180Z,8.60
2022-09-25T11:57:04.327Z,9.17
2022-09-25T12:03:01.123Z,8.00
2022-09-25T12:08:50.501Z,8.00
2022-09-25T12:14:24.136Z,8.97
2022-09-25T12:19:42.511Z,7.07
2022-09-25T12:24:58.802Z,6.80
2022-09-25T12:30:21.370Z,7.23
2022-09-25T12:35:41.012Z,8.13
2022-09-25T12:41:02.087Z,8.93
2022-09-25T12:46:15.570Z,10.80
2022-09-25T12:51:23.577Z,9.90
2022-09-25T12:57:07.277Z,10.73
2022-09-25T13:02:16.407Z,10.93
2022-09-25T13:07:44.121Z,10.40
2022-09-25T13:12:47.926Z,9.10
2022-09-25T13:17:50.905Z,10.10
2022-09-25T13:22:58.124Z,9.10
2022-09-25T13:28:08.319Z,8.70
2022-09-25T13:33:20.228Z,7.60
2022-09-25T13:38:41.519Z,7.23
2022-09-25T13:43:44.501Z,8.03
2022-09-25T13:48:47.622Z,8.67
2022-09-25T13:53:50.363Z,8.40
2022-09-25T13:59:13.222Z,7.67
2022-09-25T14:04:16.038Z,7.80
2022-09-25T14:09:23.603Z,8.17
2022-09-25T14:14:57.540Z,8.83
2022-09-25T14:20:02.877Z,7.43
2022-09-25T14:25:44.781Z,7.87
2022-09-25T14:31:13.844Z,8.70
2022-09-25T14:36:44.347Z,10.23
2022-09-25T14:42:17.243Z,8.63
2022-09-25T14:47:20.569Z,8.47
2022-09-25T14:52:27.756Z,9.77
2022-09-25T14:57:39.627Z,7.23
2022-09-25T15:02:45.106Z,8.33
2022-09-25T15:07:48.539Z,8.43
2022-09-25T15:12:55.473Z,9.33
2022-09-25T15:18:02.554Z,8.87
2022-09-25T15:23:14.312Z,10.03
2022-09-25T15:28:19.742Z,10.00
2022-09-25T15:33:29.200Z,11.90
2022-09-25T15:38:33.061Z,10.43
2022-09-25T15:43:36.057Z,10.30
2022-09-25T15:48:58.553Z,9.57
2022-09-25T15:54:04.492Z,9.47
2022-09-25T15:59:20.783Z,10.07
2022-09-25T16:04:43.477Z,8.93
2022-09-25T16:09:48.303Z,10.53
2022-09-25T16:14:51.381Z,12.13
2022-09-25T16:20:03.094Z,12.67
2022-09-25T16:25:17.188Z,12.10
2022-09-25T16:30:22.692Z,9.90
2022-09-25T16:35:50.596Z,10.20
2022-09-25T16:41:19.455Z,10.57
2022-09-25T16:46:23.360Z,10.00
2022-09-25T16:51:27.045Z,9.23
2022-09-25T16:56:32.908Z,9.27
2022-09-25T17:01:35.887Z,9.80
2022-09-25T17:06:40.984Z,9.90
2022-09-25T17:11:45.707Z,10.30
2022-09-25T17:16:48.507Z,11.40
2022-09-25T17:21:53.174Z,11.13
2022-09-25T17:26:56.025Z,10.87
2022-09-25T17:31:59.264Z,10.40
2022-09-25T17:37:02.146Z,11.87
2022-09-25T17:42:05.374Z,10.40
2022-09-25T17:47:09.785Z,10.83
2022-09-25T17:52:15.827Z,11.03
2022-09-25T17:57:18.731Z,9.27
2022-09-25T18:02:21.601Z,9.33
2022-09-25T18:07:27.685Z,8.93
2022-09-25T18:12:32.708Z,8.83
2022-09-25T18:17:35.581Z,9.60
2022-09-25T18:22:38.591Z,10.23
2022-09-25T18:27:41.975Z,9.57
2022-09-25T18:32:44.804Z,12.13
2022-09-25T18:37:48.325Z,10.17
2022-09-25T18:42:51.691Z,9.30
2022-09-25T18:47:54.999Z,10.87
2022-09-25T18:52:57.809Z,10.53
2022-09-25T18:58:01.341Z,11.43
2022-09-25T19:03:05.318Z,11.77
2022-09-25T19:08:09.003Z,11.50
2022-09-25T19:13:11.878Z,11.63
2022-09-25T19:18:14.679Z,13.00
2022-09-25T19:23:17.515Z,13.37
2022-09-25T19:28:23.029Z,15.17
2022-09-25T19:33:26.119Z,13.47
2022-09-25T19:38:32.536Z,13.20
2022-09-25T19:43:35.840Z,12.47
2022-09-25T19:48:38.631Z,14.37
2022-09-25T19:53:42.198Z,13.40
2022-09-25T19:58:46.282Z,14.73
2022-09-25T20:03:49.333Z,15.87
2022-09-25T20:08:57.925Z,14.87
2022-09-25T20:14:03.476Z,13.90
2022-09-25T20:19:07.516Z,15.17
2022-09-25T20:24:10.404Z,17.30
2022-09-25T20:29:15.643Z,17.80
2022-09-25T20:34:21.025Z,17.37
2022-09-25T20:39:23.934Z,17.50
2022-09-25T20:44:26.620Z,22.30
2022-09-25T20:49:30.244Z,21.77
2022-09-25T20:54:33.319Z,21.40
2022-09-25T20:59:37.005Z,19.93
2022-09-25T21:04:39.836Z,19.47
2022-09-25T21:09:42.551Z,18.67
2022-09-25T21:14:45.273Z,19.40
2022-09-25T21:19:48.028Z,20.20
2022-09-25T21:24:50.726Z,19.80
2022-09-25T21:29:53.457Z,22.13
2022-09-25T21:34:56.120Z,19.97
2022-09-25T21:39:58.831Z,19.97
2022-09-25T21:45:01.668Z,22.03
2022-09-25T21:50:04.996Z,22.63
2022-09-25T21:55:08.490Z,23.43
2022-09-25T22:00:12.028Z,26.87
2022-09-25T22:05:14.720Z,23.50
2022-09-25T22:10:17.456Z,24.97
2022-09-25T22:15:20.520Z,25.27
2022-09-25T22:20:23.276Z,25.53
2022-09-25T22:25:25.963Z,26.33
2022-09-25T22:30:28.688Z,25.60
2022-09-25T22:35:31.434Z,25.07
2022-09-25T22:40:39.804Z,22.87
2022-09-25T22:45:52.530Z,27.03
2022-09-25T22:51:00.305Z,23.27
2022-09-25T22:56:23.683Z,23.40
2022-09-25T23:01:33.640Z,22.13
2022-09-25T23:06:36.524Z,21.57
2022-09-25T23:11:39.540Z,21.07
2022-09-25T23:16:42.895Z,20.40
2022-09-25T23:21:45.672Z,20.87
2022-09-25T23:26:49.023Z,21.30
